Strona główna
METAR-TAF:

METAR-TAF

Lotnisko :

Port lotniczy Dżudda

Dżudda, Arabia Saudyjska

Szerokość geograficzna: 21-42N, Długość geograficzna: 039-11E, wysokość: 15 m

Aktualna obserwacja pogody

Raport powstał 17 minut temu, godzina 12:00 UTC
Wiatr 12 kt od zachodnio-północny zachód
Temperatura 28°C
Wilgotność 55%
Ciśnienie 1015 hPa
Widzialność 10 km lub więcej
Mało chmury na wysokości 4000 ft

METAR: OEJN 191200Z 30012KT 9999 FEW040 28/18 Q1015 NOSIG

czas: 15:17 (12:17 UTC)

Prognoza

Raport powstał 1 godzina i 17 minut temu, godzina 11:00 UTC
Prognoza ważna od 19 godzina 12 UTC do 20 godzina 18 UTC
Wiatr 16 kt od północno-północny zachód
Widzialność 10 km lub więcej
Mało chmury na wysokości 4000 ft
Stopniowe zmiany
od 19 godzina 20 UTC do 19 godzina 22 UTC
Wiatr 10 kt od północno-północny wschód

TAF: OEJN 191100Z 1912/2018 33016KT 9999 FEW040 BECMG 1920/1922 02010KT

Obserwacja i prognoza pogody dla ponad 4000 lotnisk (raport METAR i TAF).

Dostępne stacje oznaczono żółtymi i czerwonymi punktami na mapie.

Najedź kursorem aby zobaczyć nazwę stacji.

Kliknij aby zobaczyć obserwacje i prognozy pogody.

Aby zmienić mapę: kliknij na zielony przycisk z czarnym krzyżykiem, aby powiększyć; na zielony przycisk z myślnikiem, aby pomniejszyć; na zielone strzałki, aby przejść do map sąsiednich.


METAR-TAF: